Redwood City, CA (94065)

12:12 PM PDT on September 03, 2015 (GMT -0700)
Belmont - Island Park | | Change Station
CLOSE
Current Station
Personal Weather Station
Location: Belmont, CA
Elevation: 5 ft
Nearby Weather Stations

Elev 5 ft 37.53 °N, 122.27 °W | Updated 18 seconds ago

Partly Cloudy
Partly Cloudy
71.6 °F
Feels Like 77 °F
N
8.7
Wind Variable Wind from West
Gusts 8.7 mph

Today
High -- | Low -- °F
--% Chance of Precip.
Yesterday
High -- | Low -- °F
Precip. -- in
6:40 AM 7:35 PM
Waning Gibbous, 68% visible
Pressure 29.95 in
Visibility 10.0 miles
Clouds Few 2500 ft
Heat Index 77 °F
Dew Point 47 °F
Humidity 42%
Rainfall 0.00 in
Snow Depth Not available.
UV 8 out of 12
Pollen 8.00 out of 12
Air Quality Not available.
Flu Activity Not available.
METAR KSQL 031850Z 23010G16KT 10SM FEW025 20/09 A2995
Pressure 29.95 in
Visibility 10.0 miles
Clouds Few 2500 ft
Heat Index 77 °F
Dew Point 47 °F
Humidity 42%
Rainfall 0.00 in
Snow Depth Not available.
UV 8 out of 12
Pollen 8.00 out of 12
Air Quality Not available.
Flu Activity Not available.
METAR KSQL 031850Z 23010G16KT 10SM FEW025 20/09 A2995

10-Day Weather Forecast

×

Almanac

Astronomy

Sep. 03, 2015 Rise Set
Actual Time
Civil Twilight
Nautical Twilight
Astronomical Twilight
Moon
Length of Visible Light
Length of Day
Tomorrow will be .
, % of the Moon is Illuminated

Today's Extremes

State Highs State Lows

Community

WunderPhotos

Upload Photos

1,852,014 photos uploaded!

WunderBlogs® & News

Nearby

Air Quality

  Air Quality AQ Index Pollutant
Not available.

Snow Depth

Station Depth Elevation

Earthquake Activity

City Distance Mag. Time & Date
Minimum magnitude displayed is 2.5.

Coastal Water Temperatures

Place Temperature

Stations

Nearby Weather Stations

Station Location Temp. Windchill Dew Point Humidity Wind Precip. Elev Updated Type